sensor_id;sensor_type;location;lat;lon;timestamp;temperature;humidity
352;DHT22;164;50.784;6.496;2022-09-09T00:00:58;17.80;1.00
352;DHT22;164;50.784;6.496;2022-09-09T00:03:30;17.80;1.00
352;DHT22;164;50.784;6.496;2022-09-09T00:06:08;17.80;1.00
352;DHT22;164;50.784;6.496;2022-09-09T00:08:44;17.80;1.00
352;DHT22;164;50.784;6.496;2022-09-09T00:11:19;17.70;1.00
352;DHT22;164;50.784;6.496;2022-09-09T00:13:51;17.70;1.00
352;DHT22;164;50.784;6.496;2022-09-09T00:16:21;17.70;1.00
352;DHT22;164;50.784;6.496;2022-09-09T00:18:55;17.60;1.00
352;DHT22;164;50.784;6.496;2022-09-09T00:21:32;17.70;1.00
352;DHT22;164;50.784;6.496;2022-09-09T00:24:01;17.60;1.00
352;DHT22;164;50.784;6.496;2022-09-09T00:26:38;17.50;1.00
352;DHT22;164;50.784;6.496;2022-09-09T00:29:14;17.50;1.00
352;DHT22;164;50.784;6.496;2022-09-09T00:31:46;17.50;1.00
352;DHT22;164;50.784;6.496;2022-09-09T00:34:16;17.40;1.00
352;DHT22;164;50.784;6.496;2022-09-09T00:36:49;17.40;1.00
352;DHT22;164;50.784;6.496;2022-09-09T00:39:25;17.30;1.00
352;DHT22;164;50.784;6.496;2022-09-09T00:42:06;17.20;1.00
352;DHT22;164;50.784;6.496;2022-09-09T00:44:37;17.20;1.00
352;DHT22;164;50.784;6.496;2022-09-09T00:47:16;17.20;1.00
352;DHT22;164;50.784;6.496;2022-09-09T00:49:57;17.20;1.00
352;DHT22;164;50.784;6.496;2022-09-09T00:52:37;17.20;1.00
352;DHT22;164;50.784;6.496;2022-09-09T00:55:12;17.20;1.00
352;DHT22;164;50.784;6.496;2022-09-09T00:57:40;17.20;1.00
352;DHT22;164;50.784;6.496;2022-09-09T01:00:24;17.10;1.00
352;DHT22;164;50.784;6.496;2022-09-09T01:03:06;17.10;1.00
352;DHT22;164;50.784;6.496;2022-09-09T01:05:44;17.10;1.00
352;DHT22;164;50.784;6.496;2022-09-09T01:08:30;17.10;1.00
352;DHT22;164;50.784;6.496;2022-09-09T01:11:05;17.10;1.00
352;DHT22;164;50.784;6.496;2022-09-09T01:13:36;17.10;1.00
352;DHT22;164;50.784;6.496;2022-09-09T01:16:08;17.10;1.00
352;DHT22;164;50.784;6.496;2022-09-09T01:18:42;17.20;1.00
352;DHT22;164;50.784;6.496;2022-09-09T01:21:19;17.10;1.00
352;DHT22;164;50.784;6.496;2022-09-09T01:24:04;17.10;1.00
352;DHT22;164;50.784;6.496;2022-09-09T01:26:34;17.10;1.00
352;DHT22;164;50.784;6.496;2022-09-09T01:29:02;17.10;1.00
352;DHT22;164;50.784;6.496;2022-09-09T01:31:32;17.10;1.00
352;DHT22;164;50.784;6.496;2022-09-09T01:34:01;17.10;1.00
352;DHT22;164;50.784;6.496;2022-09-09T01:36:34;17.10;1.00
352;DHT22;164;50.784;6.496;2022-09-09T01:39:02;17.10;1.00
352;DHT22;164;50.784;6.496;2022-09-09T01:41:29;17.10;1.00
352;DHT22;164;50.784;6.496;2022-09-09T01:43:58;17.10;1.00
352;DHT22;164;50.784;6.496;2022-09-09T01:46:25;17.20;1.00
352;DHT22;164;50.784;6.496;2022-09-09T01:48:53;17.10;1.00
352;DHT22;164;50.784;6.496;2022-09-09T01:51:21;17.20;1.00
352;DHT22;164;50.784;6.496;2022-09-09T01:53:49;17.20;1.00
352;DHT22;164;50.784;6.496;2022-09-09T01:56:25;17.20;1.00
352;DHT22;164;50.784;6.496;2022-09-09T01:59:03;17.20;1.00
352;DHT22;164;50.784;6.496;2022-09-09T02:01:42;17.20;1.00
352;DHT22;164;50.784;6.496;2022-09-09T02:04:20;17.30;1.00
352;DHT22;164;50.784;6.496;2022-09-09T02:06:50;17.30;1.00
352;DHT22;164;50.784;6.496;2022-09-09T02:09:23;17.30;1.00
352;DHT22;164;50.784;6.496;2022-09-09T02:11:54;17.40;1.00
352;DHT22;164;50.784;6.496;2022-09-09T02:14:29;17.40;1.00
352;DHT22;164;50.784;6.496;2022-09-09T02:17:02;17.50;1.00
352;DHT22;164;50.784;6.496;2022-09-09T02:19:32;17.60;1.00
352;DHT22;164;50.784;6.496;2022-09-09T02:22:02;17.60;1.00
352;DHT22;164;50.784;6.496;2022-09-09T02:24:31;17.60;1.00
352;DHT22;164;50.784;6.496;2022-09-09T02:27:02;17.70;1.00
352;DHT22;164;50.784;6.496;2022-09-09T02:29:35;17.70;1.00
352;DHT22;164;50.784;6.496;2022-09-09T02:32:06;17.70;1.00
352;DHT22;164;50.784;6.496;2022-09-09T02:34:36;17.70;1.00
352;DHT22;164;50.784;6.496;2022-09-09T02:37:07;17.80;1.00
352;DHT22;164;50.784;6.496;2022-09-09T02:39:34;17.80;1.00
352;DHT22;164;50.784;6.496;2022-09-09T02:42:03;17.80;1.00
352;DHT22;164;50.784;6.496;2022-09-09T02:44:30;17.90;1.00
352;DHT22;164;50.784;6.496;2022-09-09T02:47:21;17.80;1.00
352;DHT22;164;50.784;6.496;2022-09-09T02:50:02;17.80;1.00
352;DHT22;164;50.784;6.496;2022-09-09T02:52:38;17.80;1.00
352;DHT22;164;50.784;6.496;2022-09-09T02:55:10;17.80;1.00
352;DHT22;164;50.784;6.496;2022-09-09T02:57:39;17.80;1.00
352;DHT22;164;50.784;6.496;2022-09-09T03:00:08;17.80;1.00
352;DHT22;164;50.784;6.496;2022-09-09T03:02:37;17.80;1.00
352;DHT22;164;50.784;6.496;2022-09-09T03:05:06;17.80;1.00
352;DHT22;164;50.784;6.496;2022-09-09T03:07:33;17.80;1.00
352;DHT22;164;50.784;6.496;2022-09-09T03:10:00;17.80;1.00
352;DHT22;164;50.784;6.496;2022-09-09T03:12:27;17.80;1.00
352;DHT22;164;50.784;6.496;2022-09-09T03:14:54;17.80;1.00
352;DHT22;164;50.784;6.496;2022-09-09T03:17:21;17.80;1.00
352;DHT22;164;50.784;6.496;2022-09-09T03:19:49;17.80;1.00
352;DHT22;164;50.784;6.496;2022-09-09T03:22:17;17.70;1.00
352;DHT22;164;50.784;6.496;2022-09-09T03:24:45;17.70;1.00
352;DHT22;164;50.784;6.496;2022-09-09T03:27:12;17.70;1.00
352;DHT22;164;50.784;6.496;2022-09-09T03:29:39;17.80;1.00
352;DHT22;164;50.784;6.496;2022-09-09T03:32:06;17.80;1.00
352;DHT22;164;50.784;6.496;2022-09-09T03:34:36;17.80;1.00
352;DHT22;164;50.784;6.496;2022-09-09T03:37:06;17.80;1.00
352;DHT22;164;50.784;6.496;2022-09-09T03:39:33;17.90;1.00
352;DHT22;164;50.784;6.496;2022-09-09T03:42:00;17.90;1.00
352;DHT22;164;50.784;6.496;2022-09-09T03:44:29;17.90;1.00
352;DHT22;164;50.784;6.496;2022-09-09T03:46:56;17.90;1.00
352;DHT22;164;50.784;6.496;2022-09-09T03:49:26;17.90;1.00
352;DHT22;164;50.784;6.496;2022-09-09T03:51:54;17.90;1.00
352;DHT22;164;50.784;6.496;2022-09-09T04:00:20;17.90;1.00
352;DHT22;164;50.784;6.496;2022-09-09T04:02:47;17.80;1.00
352;DHT22;164;50.784;6.496;2022-09-09T04:05:15;17.80;1.00
352;DHT22;164;50.784;6.496;2022-09-09T04:07:42;17.80;1.00
352;DHT22;164;50.784;6.496;2022-09-09T04:10:09;17.80;1.00
352;DHT22;164;50.784;6.496;2022-09-09T04:12:36;17.90;1.00
352;DHT22;164;50.784;6.496;2022-09-09T04:15:03;17.90;1.00
352;DHT22;164;50.784;6.496;2022-09-09T04:17:32;17.90;1.00
352;DHT22;164;50.784;6.496;2022-09-09T04:19:58;17.90;1.00
352;DHT22;164;50.784;6.496;2022-09-09T04:22:26;17.90;1.00
352;DHT22;164;50.784;6.496;2022-09-09T04:24:53;17.90;1.00
352;DHT22;164;50.784;6.496;2022-09-09T04:27:20;17.90;1.00
352;DHT22;164;50.784;6.496;2022-09-09T04:29:47;17.90;1.00
352;DHT22;164;50.784;6.496;2022-09-09T04:32:14;17.90;1.00
352;DHT22;164;50.784;6.496;2022-09-09T04:34:42;17.90;1.00
352;DHT22;164;50.784;6.496;2022-09-09T04:37:10;17.90;1.00
352;DHT22;164;50.784;6.496;2022-09-09T04:39:37;18.00;1.00
352;DHT22;164;50.784;6.496;2022-09-09T04:42:04;18.00;1.00
352;DHT22;164;50.784;6.496;2022-09-09T04:44:31;17.90;1.00
352;DHT22;164;50.784;6.496;2022-09-09T04:46:58;17.90;1.00
352;DHT22;164;50.784;6.496;2022-09-09T04:49:25;17.90;1.00
352;DHT22;164;50.784;6.496;2022-09-09T04:51:53;17.90;1.00
352;DHT22;164;50.784;6.496;2022-09-09T04:54:21;17.90;1.00
352;DHT22;164;50.784;6.496;2022-09-09T04:56:49;17.90;1.00
352;DHT22;164;50.784;6.496;2022-09-09T04:59:17;18.00;1.00
352;DHT22;164;50.784;6.496;2022-09-09T05:01:44;18.00;1.00
352;DHT22;164;50.784;6.496;2022-09-09T05:04:11;18.00;1.00
352;DHT22;164;50.784;6.496;2022-09-09T05:06:38;18.00;1.00
352;DHT22;164;50.784;6.496;2022-09-09T05:09:06;18.00;1.00
352;DHT22;164;50.784;6.496;2022-09-09T05:11:34;18.00;1.00
352;DHT22;164;50.784;6.496;2022-09-09T05:14:02;18.00;1.00
352;DHT22;164;50.784;6.496;2022-09-09T05:16:29;18.00;1.00
352;DHT22;164;50.784;6.496;2022-09-09T05:18:57;18.00;1.00
352;DHT22;164;50.784;6.496;2022-09-09T05:21:24;18.00;1.00
352;DHT22;164;50.784;6.496;2022-09-09T05:23:52;18.00;1.00
352;DHT22;164;50.784;6.496;2022-09-09T05:26:21;18.00;1.00
352;DHT22;164;50.784;6.496;2022-09-09T05:28:49;18.00;1.00
352;DHT22;164;50.784;6.496;2022-09-09T05:31:17;18.00;1.00
352;DHT22;164;50.784;6.496;2022-09-09T05:33:45;18.00;1.00
352;DHT22;164;50.784;6.496;2022-09-09T05:36:16;18.00;1.00
352;DHT22;164;50.784;6.496;2022-09-09T05:38:43;17.90;1.00
352;DHT22;164;50.784;6.496;2022-09-09T05:41:11;17.90;1.00
352;DHT22;164;50.784;6.496;2022-09-09T05:43:42;17.90;1.00
352;DHT22;164;50.784;6.496;2022-09-09T05:46:12;17.80;1.00
352;DHT22;164;50.784;6.496;2022-09-09T05:48:40;17.70;1.00
352;DHT22;164;50.784;6.496;2022-09-09T05:51:10;17.70;1.00
352;DHT22;164;50.784;6.496;2022-09-09T05:53:38;17.70;1.00
352;DHT22;164;50.784;6.496;2022-09-09T05:56:07;17.70;1.00
352;DHT22;164;50.784;6.496;2022-09-09T05:58:35;17.80;1.00
352;DHT22;164;50.784;6.496;2022-09-09T06:01:06;17.80;1.00
352;DHT22;164;50.784;6.496;2022-09-09T06:03:34;17.90;1.00
352;DHT22;164;50.784;6.496;2022-09-09T06:06:03;17.90;1.00
352;DHT22;164;50.784;6.496;2022-09-09T06:08:31;18.00;1.00
352;DHT22;164;50.784;6.496;2022-09-09T06:11:01;18.00;1.00
352;DHT22;164;50.784;6.496;2022-09-09T06:13:29;18.10;1.00
352;DHT22;164;50.784;6.496;2022-09-09T06:15:57;18.10;1.00
352;DHT22;164;50.784;6.496;2022-09-09T06:18:25;18.10;1.00
352;DHT22;164;50.784;6.496;2022-09-09T06:20:56;18.20;1.00
352;DHT22;164;50.784;6.496;2022-09-09T06:23:24;18.20;1.00
352;DHT22;164;50.784;6.496;2022-09-09T06:25:51;18.20;1.00
352;DHT22;164;50.784;6.496;2022-09-09T06:28:18;18.20;1.00
352;DHT22;164;50.784;6.496;2022-09-09T06:30:45;18.20;1.00
352;DHT22;164;50.784;6.496;2022-09-09T06:33:12;18.20;1.00
352;DHT22;164;50.784;6.496;2022-09-09T06:35:41;18.30;1.00
352;DHT22;164;50.784;6.496;2022-09-09T06:38:07;18.30;1.00
352;DHT22;164;50.784;6.496;2022-09-09T06:40:35;18.30;1.00
352;DHT22;164;50.784;6.496;2022-09-09T06:43:02;18.30;1.00
352;DHT22;164;50.784;6.496;2022-09-09T06:45:29;18.20;1.00
352;DHT22;164;50.784;6.496;2022-09-09T06:47:57;18.20;1.00
352;DHT22;164;50.784;6.496;2022-09-09T06:50:24;18.20;1.00
352;DHT22;164;50.784;6.496;2022-09-09T06:52:52;18.20;1.00
352;DHT22;164;50.784;6.496;2022-09-09T06:55:19;18.30;1.00
352;DHT22;164;50.784;6.496;2022-09-09T06:57:46;18.30;1.00
352;DHT22;164;50.784;6.496;2022-09-09T07:00:14;18.30;1.00
352;DHT22;164;50.784;6.496;2022-09-09T07:02:41;18.30;1.00
352;DHT22;164;50.784;6.496;2022-09-09T07:05:08;18.20;1.00
352;DHT22;164;50.784;6.496;2022-09-09T07:07:36;18.20;1.00
352;DHT22;164;50.784;6.496;2022-09-09T07:10:05;18.20;1.00
352;DHT22;164;50.784;6.496;2022-09-09T07:12:33;18.30;1.00
352;DHT22;164;50.784;6.496;2022-09-09T07:15:00;18.40;1.00
352;DHT22;164;50.784;6.496;2022-09-09T07:17:27;18.40;1.00
352;DHT22;164;50.784;6.496;2022-09-09T07:19:55;18.60;1.00
352;DHT22;164;50.784;6.496;2022-09-09T07:22:22;18.50;1.00
352;DHT22;164;50.784;6.496;2022-09-09T07:24:50;18.50;1.00
352;DHT22;164;50.784;6.496;2022-09-09T07:27:18;18.60;1.00
352;DHT22;164;50.784;6.496;2022-09-09T07:29:46;18.70;1.00
352;DHT22;164;50.784;6.496;2022-09-09T07:32:14;18.90;1.00
352;DHT22;164;50.784;6.496;2022-09-09T07:34:42;19.00;1.00
352;DHT22;164;50.784;6.496;2022-09-09T07:37:09;19.10;1.00
352;DHT22;164;50.784;6.496;2022-09-09T07:39:37;19.10;1.00
352;DHT22;164;50.784;6.496;2022-09-09T07:42:05;19.00;1.00
352;DHT22;164;50.784;6.496;2022-09-09T07:44:33;18.90;1.00
352;DHT22;164;50.784;6.496;2022-09-09T07:47:01;18.90;1.00
352;DHT22;164;50.784;6.496;2022-09-09T07:49:28;19.00;1.00
352;DHT22;164;50.784;6.496;2022-09-09T07:51:55;19.10;1.00
352;DHT22;164;50.784;6.496;2022-09-09T07:54:22;19.10;1.00
352;DHT22;164;50.784;6.496;2022-09-09T07:56:51;19.10;1.00
352;DHT22;164;50.784;6.496;2022-09-09T07:59:18;19.20;1.00
352;DHT22;164;50.784;6.496;2022-09-09T08:01:48;19.50;1.00
352;DHT22;164;50.784;6.496;2022-09-09T08:04:21;19.60;1.00
352;DHT22;164;50.784;6.496;2022-09-09T08:06:50;19.60;1.00
352;DHT22;164;50.784;6.496;2022-09-09T08:09:18;19.50;1.00
352;DHT22;164;50.784;6.496;2022-09-09T08:11:46;19.40;1.00
352;DHT22;164;50.784;6.496;2022-09-09T08:14:13;19.30;1.00
352;DHT22;164;50.784;6.496;2022-09-09T08:16:42;19.30;1.00
352;DHT22;164;50.784;6.496;2022-09-09T08:19:11;19.20;1.00
352;DHT22;164;50.784;6.496;2022-09-09T08:21:41;19.10;1.00
352;DHT22;164;50.784;6.496;2022-09-09T08:24:09;19.10;1.00
352;DHT22;164;50.784;6.496;2022-09-09T08:26:39;19.10;1.00
352;DHT22;164;50.784;6.496;2022-09-09T08:29:08;19.20;1.00
352;DHT22;164;50.784;6.496;2022-09-09T08:31:38;19.20;1.00
352;DHT22;164;50.784;6.496;2022-09-09T08:34:06;19.20;1.00
352;DHT22;164;50.784;6.496;2022-09-09T08:36:37;19.20;1.00
352;DHT22;164;50.784;6.496;2022-09-09T08:39:05;19.10;1.00
352;DHT22;164;50.784;6.496;2022-09-09T08:44:46;19.10;1.00
352;DHT22;164;50.784;6.496;2022-09-09T08:47:20;19.20;1.00
352;DHT22;164;50.784;6.496;2022-09-09T08:50:03;19.50;1.00
352;DHT22;164;50.784;6.496;2022-09-09T08:52:40;19.70;1.00
352;DHT22;164;50.784;6.496;2022-09-09T08:55:19;19.80;1.00
352;DHT22;164;50.784;6.496;2022-09-09T08:57:49;19.80;1.00
352;DHT22;164;50.784;6.496;2022-09-09T09:00:18;19.90;1.00
352;DHT22;164;50.784;6.496;2022-09-09T09:02:51;19.80;1.00
352;DHT22;164;50.784;6.496;2022-09-09T09:05:27;19.90;1.00
352;DHT22;164;50.784;6.496;2022-09-09T09:08:03;20.10;1.00
352;DHT22;164;50.784;6.496;2022-09-09T09:10:45;20.00;1.00
352;DHT22;164;50.784;6.496;2022-09-09T09:13:19;19.90;1.00
352;DHT22;164;50.784;6.496;2022-09-09T09:15:52;20.00;1.00
352;DHT22;164;50.784;6.496;2022-09-09T09:18:20;19.90;1.00
352;DHT22;164;50.784;6.496;2022-09-09T09:20:54;20.00;1.00
352;DHT22;164;50.784;6.496;2022-09-09T09:23:31;20.00;1.00
352;DHT22;164;50.784;6.496;2022-09-09T09:26:01;20.00;1.00
352;DHT22;164;50.784;6.496;2022-09-09T09:28:31;20.00;1.00
352;DHT22;164;50.784;6.496;2022-09-09T09:31:03;19.70;1.00
352;DHT22;164;50.784;6.496;2022-09-09T09:33:34;19.80;1.00
352;DHT22;164;50.784;6.496;2022-09-09T09:36:03;19.80;1.00
352;DHT22;164;50.784;6.496;2022-09-09T09:38:33;19.90;1.00
352;DHT22;164;50.784;6.496;2022-09-09T09:41:01;19.90;1.00
352;DHT22;164;50.784;6.496;2022-09-09T09:43:29;20.00;1.00
352;DHT22;164;50.784;6.496;2022-09-09T09:45:57;20.20;1.00
352;DHT22;164;50.784;6.496;2022-09-09T09:48:25;20.40;1.00
352;DHT22;164;50.784;6.496;2022-09-09T09:50:55;20.60;1.00
352;DHT22;164;50.784;6.496;2022-09-09T09:53:25;20.70;1.00
352;DHT22;164;50.784;6.496;2022-09-09T09:55:58;20.80;1.00
352;DHT22;164;50.784;6.496;2022-09-09T09:58:26;20.90;1.00
352;DHT22;164;50.784;6.496;2022-09-09T10:00:55;20.50;1.00
352;DHT22;164;50.784;6.496;2022-09-09T10:03:25;20.30;1.00
352;DHT22;164;50.784;6.496;2022-09-09T10:05:54;20.20;1.00
352;DHT22;164;50.784;6.496;2022-09-09T10:08:22;20.40;1.00
352;DHT22;164;50.784;6.496;2022-09-09T10:13:49;20.70;1.00
352;DHT22;164;50.784;6.496;2022-09-09T10:16:29;21.00;1.00
352;DHT22;164;50.784;6.496;2022-09-09T10:19:04;20.90;1.00
352;DHT22;164;50.784;6.496;2022-09-09T10:21:53;21.10;1.00
352;DHT22;164;50.784;6.496;2022-09-09T10:24:48;21.20;1.00
352;DHT22;164;50.784;6.496;2022-09-09T10:27:21;21.10;1.00
352;DHT22;164;50.784;6.496;2022-09-09T10:30:05;21.20;1.00
352;DHT22;164;50.784;6.496;2022-09-09T10:32:42;21.30;1.00
352;DHT22;164;50.784;6.496;2022-09-09T10:35:19;21.40;1.00
352;DHT22;164;50.784;6.496;2022-09-09T10:38:05;21.30;1.00
352;DHT22;164;50.784;6.496;2022-09-09T10:40:39;21.10;1.00
352;DHT22;164;50.784;6.496;2022-09-09T10:43:18;21.00;1.00
352;DHT22;164;50.784;6.496;2022-09-09T10:45:57;20.90;1.00
352;DHT22;164;50.784;6.496;2022-09-09T10:48:46;20.90;1.00
352;DHT22;164;50.784;6.496;2022-09-09T10:51:23;20.80;1.00
352;DHT22;164;50.784;6.496;2022-09-09T10:54:03;20.80;1.00
352;DHT22;164;50.784;6.496;2022-09-09T10:56:31;20.60;1.00
352;DHT22;164;50.784;6.496;2022-09-09T10:59:02;20.70;1.00
352;DHT22;164;50.784;6.496;2022-09-09T11:01:37;20.70;1.00
352;DHT22;164;50.784;6.496;2022-09-09T11:04:11;21.00;1.00
352;DHT22;164;50.784;6.496;2022-09-09T11:06:46;21.20;1.00
352;DHT22;164;50.784;6.496;2022-09-09T11:09:16;21.30;1.00
352;DHT22;164;50.784;6.496;2022-09-09T11:11:51;21.40;1.00
352;DHT22;164;50.784;6.496;2022-09-09T11:14:22;21.20;1.00
352;DHT22;164;50.784;6.496;2022-09-09T11:16:58;21.10;1.00
352;DHT22;164;50.784;6.496;2022-09-09T11:19:30;21.10;1.00
352;DHT22;164;50.784;6.496;2022-09-09T11:22:03;21.10;1.00
352;DHT22;164;50.784;6.496;2022-09-09T11:24:36;21.20;1.00
352;DHT22;164;50.784;6.496;2022-09-09T11:27:09;21.20;1.00
352;DHT22;164;50.784;6.496;2022-09-09T11:30:02;21.00;1.00
352;DHT22;164;50.784;6.496;2022-09-09T11:33:07;21.00;1.00
352;DHT22;164;50.784;6.496;2022-09-09T11:35:46;21.00;1.00
352;DHT22;164;50.784;6.496;2022-09-09T11:38:25;21.10;1.00
352;DHT22;164;50.784;6.496;2022-09-09T11:40:57;21.10;1.00
352;DHT22;164;50.784;6.496;2022-09-09T11:43:29;21.30;1.00
352;DHT22;164;50.784;6.496;2022-09-09T11:45:59;21.40;1.00
352;DHT22;164;50.784;6.496;2022-09-09T11:48:33;21.50;1.00
352;DHT22;164;50.784;6.496;2022-09-09T11:51:03;21.60;1.00
352;DHT22;164;50.784;6.496;2022-09-09T11:53:33;21.50;1.00
352;DHT22;164;50.784;6.496;2022-09-09T11:56:06;21.30;1.00
352;DHT22;164;50.784;6.496;2022-09-09T12:01:36;21.30;1.00
352;DHT22;164;50.784;6.496;2022-09-09T12:04:17;21.20;1.00
352;DHT22;164;50.784;6.496;2022-09-09T12:06:51;21.00;1.00
352;DHT22;164;50.784;6.496;2022-09-09T12:09:24;20.80;1.00
352;DHT22;164;50.784;6.496;2022-09-09T12:11:52;20.70;1.00
352;DHT22;164;50.784;6.496;2022-09-09T12:14:34;20.90;1.00
352;DHT22;164;50.784;6.496;2022-09-09T12:17:10;20.90;1.00
352;DHT22;164;50.784;6.496;2022-09-09T12:19:45;21.20;1.00
352;DHT22;164;50.784;6.496;2022-09-09T12:22:19;21.40;1.00
352;DHT22;164;50.784;6.496;2022-09-09T12:24:54;21.30;1.00
352;DHT22;164;50.784;6.496;2022-09-09T12:27:27;21.20;1.00
352;DHT22;164;50.784;6.496;2022-09-09T12:29:58;21.10;1.00
352;DHT22;164;50.784;6.496;2022-09-09T12:32:28;21.20;1.00
352;DHT22;164;50.784;6.496;2022-09-09T12:34:59;21.30;1.00
352;DHT22;164;50.784;6.496;2022-09-09T12:37:33;21.30;1.00
352;DHT22;164;50.784;6.496;2022-09-09T12:40:03;21.30;1.00
352;DHT22;164;50.784;6.496;2022-09-09T12:42:31;21.40;1.00
352;DHT22;164;50.784;6.496;2022-09-09T12:45:01;21.60;1.00
352;DHT22;164;50.784;6.496;2022-09-09T12:47:38;21.80;1.00
352;DHT22;164;50.784;6.496;2022-09-09T12:50:16;22.10;1.00
352;DHT22;164;50.784;6.496;2022-09-09T12:52:44;22.40;1.00
352;DHT22;164;50.784;6.496;2022-09-09T12:55:17;22.60;1.00
352;DHT22;164;50.784;6.496;2022-09-09T12:57:46;22.70;1.00
352;DHT22;164;50.784;6.496;2022-09-09T13:00:17;22.50;1.00
352;DHT22;164;50.784;6.496;2022-09-09T13:02:50;22.40;1.00
352;DHT22;164;50.784;6.496;2022-09-09T13:05:21;22.50;1.00
352;DHT22;164;50.784;6.496;2022-09-09T13:07:49;22.80;1.00
352;DHT22;164;50.784;6.496;2022-09-09T13:10:22;23.10;1.00
352;DHT22;164;50.784;6.496;2022-09-09T13:12:52;23.20;1.00
352;DHT22;164;50.784;6.496;2022-09-09T13:15:21;22.90;1.00
352;DHT22;164;50.784;6.496;2022-09-09T13:17:52;22.60;1.00
352;DHT22;164;50.784;6.496;2022-09-09T13:20:22;22.40;1.00
352;DHT22;164;50.784;6.496;2022-09-09T13:22:50;22.20;1.00
352;DHT22;164;50.784;6.496;2022-09-09T13:25:22;22.00;1.00
352;DHT22;164;50.784;6.496;2022-09-09T13:27:57;21.90;1.00
352;DHT22;164;50.784;6.496;2022-09-09T13:30:26;21.90;1.00
352;DHT22;164;50.784;6.496;2022-09-09T13:33:00;21.60;1.00
352;DHT22;164;50.784;6.496;2022-09-09T13:35:29;21.10;1.00
352;DHT22;164;50.784;6.496;2022-09-09T13:37:57;20.90;1.00
352;DHT22;164;50.784;6.496;2022-09-09T13:40:25;20.60;1.00
352;DHT22;164;50.784;6.496;2022-09-09T13:42:56;20.20;1.00
352;DHT22;164;50.784;6.496;2022-09-09T13:45:25;20.00;1.00
352;DHT22;164;50.784;6.496;2022-09-09T13:47:53;19.70;1.00
352;DHT22;164;50.784;6.496;2022-09-09T13:50:22;19.20;1.00
352;DHT22;164;50.784;6.496;2022-09-09T13:52:52;18.70;1.00
352;DHT22;164;50.784;6.496;2022-09-09T13:55:21;18.10;1.00
352;DHT22;164;50.784;6.496;2022-09-09T13:57:52;17.70;1.00
352;DHT22;164;50.784;6.496;2022-09-09T14:00:20;17.40;1.00
352;DHT22;164;50.784;6.496;2022-09-09T14:02:47;17.30;1.00
352;DHT22;164;50.784;6.496;2022-09-09T14:05:15;17.20;1.00
352;DHT22;164;50.784;6.496;2022-09-09T14:07:42;17.50;1.00
352;DHT22;164;50.784;6.496;2022-09-09T14:10:12;17.90;1.00
352;DHT22;164;50.784;6.496;2022-09-09T14:12:39;18.10;1.00
352;DHT22;164;50.784;6.496;2022-09-09T14:15:07;18.50;1.00
352;DHT22;164;50.784;6.496;2022-09-09T14:17:35;18.80;1.00
352;DHT22;164;50.784;6.496;2022-09-09T14:20:02;19.20;1.00
352;DHT22;164;50.784;6.496;2022-09-09T14:22:31;19.70;1.00
352;DHT22;164;50.784;6.496;2022-09-09T14:24:58;19.80;1.00
352;DHT22;164;50.784;6.496;2022-09-09T14:27:26;20.20;1.00
352;DHT22;164;50.784;6.496;2022-09-09T14:29:54;20.40;1.00
352;DHT22;164;50.784;6.496;2022-09-09T14:32:21;20.50;1.00
352;DHT22;164;50.784;6.496;2022-09-09T14:34:48;20.50;1.00
352;DHT22;164;50.784;6.496;2022-09-09T14:37:15;20.50;1.00
352;DHT22;164;50.784;6.496;2022-09-09T14:39:43;20.20;1.00
352;DHT22;164;50.784;6.496;2022-09-09T14:42:10;19.90;1.00
352;DHT22;164;50.784;6.496;2022-09-09T14:44:38;19.70;1.00
352;DHT22;164;50.784;6.496;2022-09-09T14:47:06;19.50;1.00
352;DHT22;164;50.784;6.496;2022-09-09T14:49:34;19.20;1.00
352;DHT22;164;50.784;6.496;2022-09-09T14:52:04;19.00;1.00
352;DHT22;164;50.784;6.496;2022-09-09T14:54:32;18.60;1.00
352;DHT22;164;50.784;6.496;2022-09-09T14:56:59;18.40;1.00
352;DHT22;164;50.784;6.496;2022-09-09T14:59:26;18.30;1.00
352;DHT22;164;50.784;6.496;2022-09-09T15:01:55;18.30;1.00
352;DHT22;164;50.784;6.496;2022-09-09T15:04:22;18.20;1.00
352;DHT22;164;50.784;6.496;2022-09-09T15:06:49;18.10;1.00
352;DHT22;164;50.784;6.496;2022-09-09T15:09:19;18.10;1.00
352;DHT22;164;50.784;6.496;2022-09-09T15:11:46;18.10;1.00
352;DHT22;164;50.784;6.496;2022-09-09T15:14:13;18.10;1.00
352;DHT22;164;50.784;6.496;2022-09-09T15:16:40;18.10;1.00
352;DHT22;164;50.784;6.496;2022-09-09T15:19:08;18.20;1.00
352;DHT22;164;50.784;6.496;2022-09-09T15:21:36;18.10;1.00
352;DHT22;164;50.784;6.496;2022-09-09T15:24:04;18.00;1.00
352;DHT22;164;50.784;6.496;2022-09-09T15:26:32;17.90;1.00
352;DHT22;164;50.784;6.496;2022-09-09T15:29:00;17.80;1.00
352;DHT22;164;50.784;6.496;2022-09-09T15:31:28;17.90;1.00
352;DHT22;164;50.784;6.496;2022-09-09T15:33:57;17.80;1.00
352;DHT22;164;50.784;6.496;2022-09-09T15:36:29;17.80;1.00
352;DHT22;164;50.784;6.496;2022-09-09T15:38:57;17.80;1.00
352;DHT22;164;50.784;6.496;2022-09-09T15:41:25;17.80;1.00
352;DHT22;164;50.784;6.496;2022-09-09T15:43:54;17.90;1.00
352;DHT22;164;50.784;6.496;2022-09-09T15:46:28;18.00;1.00
352;DHT22;164;50.784;6.496;2022-09-09T15:48:56;18.00;1.00
352;DHT22;164;50.784;6.496;2022-09-09T15:51:25;18.00;1.00
352;DHT22;164;50.784;6.496;2022-09-09T15:53:58;18.20;1.00
352;DHT22;164;50.784;6.496;2022-09-09T15:56:27;18.20;1.00
352;DHT22;164;50.784;6.496;2022-09-09T15:58:56;18.40;1.00
352;DHT22;164;50.784;6.496;2022-09-09T16:01:26;18.50;1.00
352;DHT22;164;50.784;6.496;2022-09-09T16:03:53;18.90;1.00
352;DHT22;164;50.784;6.496;2022-09-09T16:06:22;19.00;1.00
352;DHT22;164;50.784;6.496;2022-09-09T16:08:54;19.20;1.00
352;DHT22;164;50.784;6.496;2022-09-09T16:11:25;19.30;1.00
352;DHT22;164;50.784;6.496;2022-09-09T16:13:53;19.70;1.00
352;DHT22;164;50.784;6.496;2022-09-09T16:16:23;20.70;1.00
352;DHT22;164;50.784;6.496;2022-09-09T16:18:52;21.80;1.00
352;DHT22;164;50.784;6.496;2022-09-09T16:21:22;22.90;1.00
352;DHT22;164;50.784;6.496;2022-09-09T16:23:51;23.50;1.00
352;DHT22;164;50.784;6.496;2022-09-09T16:26:20;24.30;1.00
352;DHT22;164;50.784;6.496;2022-09-09T16:28:49;24.70;1.00
352;DHT22;164;50.784;6.496;2022-09-09T16:31:18;24.60;1.00
352;DHT22;164;50.784;6.496;2022-09-09T16:33:45;23.90;1.00
352;DHT22;164;50.784;6.496;2022-09-09T16:36:14;23.00;1.00
352;DHT22;164;50.784;6.496;2022-09-09T16:38:42;22.30;1.00
352;DHT22;164;50.784;6.496;2022-09-09T16:41:10;21.90;1.00
352;DHT22;164;50.784;6.496;2022-09-09T16:43:37;21.30;1.00
352;DHT22;164;50.784;6.496;2022-09-09T16:46:13;20.90;1.00
352;DHT22;164;50.784;6.496;2022-09-09T16:48:41;20.40;1.00
352;DHT22;164;50.784;6.496;2022-09-09T16:51:12;20.20;1.00
352;DHT22;164;50.784;6.496;2022-09-09T16:53:41;19.90;1.00
352;DHT22;164;50.784;6.496;2022-09-09T16:56:10;19.70;1.00
352;DHT22;164;50.784;6.496;2022-09-09T16:58:37;19.50;1.00
352;DHT22;164;50.784;6.496;2022-09-09T17:01:05;19.30;1.00
352;DHT22;164;50.784;6.496;2022-09-09T17:03:33;19.30;1.00
352;DHT22;164;50.784;6.496;2022-09-09T17:06:00;19.20;1.00
352;DHT22;164;50.784;6.496;2022-09-09T17:08:28;19.00;1.00
352;DHT22;164;50.784;6.496;2022-09-09T17:10:56;19.00;1.00
352;DHT22;164;50.784;6.496;2022-09-09T17:13:24;18.80;1.00
352;DHT22;164;50.784;6.496;2022-09-09T17:15:51;18.70;1.00
352;DHT22;164;50.784;6.496;2022-09-09T17:18:18;18.70;1.00
352;DHT22;164;50.784;6.496;2022-09-09T17:20:47;18.70;1.00
352;DHT22;164;50.784;6.496;2022-09-09T17:23:14;18.60;1.00
352;DHT22;164;50.784;6.496;2022-09-09T17:25:41;18.60;1.00
352;DHT22;164;50.784;6.496;2022-09-09T17:28:08;18.60;1.00